Marion Station, Maryland
Current Conditions -  °F | °C
As of 8:42 PM on Monday 24 Nov 2014 (Local Time) from KWAL Reporting Station
Thunderstorm Thunderstorm  
Wind Chill: 65°   Ceiling: 10000
Heat Index: 65°   Visibility: 10mi
Dew Point: 62°   Wind: 9mph
Humidity: 90%   Direction: 190°S
Pressure: 29.8"   Gusts: NA
Location:  38.03°N, 75.76°W
Report Text: KWAL 250142Z 19008KT 10SM VCTS -RA FEW050 FEW080 BKN100 18/17 A2980 RMK AO2 LTG DSNT SW AND W RAB33 P0000 T01830167
Loading
Personal Weather Stations






























Interactive Weather Map New forecast layout! Learn more

10-Day Weather Forecast

Advertisements
Track Severe Weather on mobile